METAR ET TAF INFORMATION
METAR FOR ENBL
ADDS - METARS form results

(1441 UTC 15 September 2019)
Data provider http://aviationweather.gov/metar/data/
 
METAR text: ENBL 151420Z 27016G28KT 7000 SHRA FEW010 SCT015 BKN020 08/06 Q0998
Conditions at: ENBL (FORDE/BRINGELAND, NO) observed 1420 UTC 15 September 2019
Temperature: 8.0°C (46°F)
Dewpoint: 6.0°C (43°F) [RH = 87%]
Pressure (altimeter): 29.47 inches Hg (998.0 mb)
Winds: from the W (270 degrees) at 18 MPH (16 knots; 8.2 m/s)
gusting to 32 MPH (28 knots; 14.4 m/s)
Visibility: 4 miles ( 7 km)
Ceiling: 2000 feet AGL
Clouds: few clouds at 1000 feet AGL
scattered clouds at 1500 feet AGL
broken clouds at 2000 feet AGL
Weather: SHRA  (rain showers)

METAR text: ENBL 151350Z 28011KT 4000 RA VCFG FEW003 SCT007 BKN012 09/08 Q0998
Conditions at: ENBL (FORDE/BRINGELAND, NO) observed 1350 UTC 15 September 2019
Temperature: 9.0°C (48°F)
Dewpoint: 8.0°C (46°F) [RH = 93%]
Pressure (altimeter): 29.47 inches Hg (998.0 mb)
Winds: from the W (280 degrees) at 13 MPH (11 knots; 5.7 m/s)
Visibility: 2.49 miles (4.01 km)
Ceiling: 1200 feet AGL
Clouds: few clouds at 300 feet AGL
scattered clouds at 700 feet AGL
broken clouds at 1200 feet AGL
Weather: RA VCFG  (moderate rain, fog in vicinity)

 AÉROPORT DE AÉROPORT

 INFORMATIONS DE PISTE
Piste 07 Longueur de la piste 3084 ft Largeur de la piste 0 ft
Élévation de la piste 1034 ft Seuil de la piste déplacés 0 ft Runway heading 0
Piste 25 Longueur de la piste 3084 ft Largeur de la piste 0 ft
Élévation de la piste 1046 ft Seuil de la piste déplacés 0 ft Runway heading 0

 AÉROPORT FRÉQUENCES
Type AFIS Nom Bringeland Féquence 118.45 MHZ

 SIDA DE NAVIGATION
Type NDB Nom Bringeland Féquence 374 KHZ
Type NDB Nom Fleten Féquence 345 KHZ
Type NDB Nom Langeneset Féquence 339 KHZ



Powered by Virtual Airlines Manager [v2.6.2]